sensor_id;sensor_type;location;lat;lon;timestamp;temperature;humidity
19017;DHT22;9641;51.494;6.670;2023-07-02T00:00:05;17.80;99.90
19017;DHT22;9641;51.494;6.670;2023-07-02T00:02:36;17.80;99.90
19017;DHT22;9641;51.494;6.670;2023-07-02T00:05:03;17.80;99.90
19017;DHT22;9641;51.494;6.670;2023-07-02T00:07:30;17.80;99.90
19017;DHT22;9641;51.494;6.670;2023-07-02T00:09:58;17.80;99.90
19017;DHT22;9641;51.494;6.670;2023-07-02T00:12:25;17.80;99.90
19017;DHT22;9641;51.494;6.670;2023-07-02T00:14:53;17.80;99.90
19017;DHT22;9641;51.494;6.670;2023-07-02T00:17:20;17.80;99.90
19017;DHT22;9641;51.494;6.670;2023-07-02T00:19:47;17.80;99.90
19017;DHT22;9641;51.494;6.670;2023-07-02T00:22:17;17.70;99.90
19017;DHT22;9641;51.494;6.670;2023-07-02T00:24:43;17.70;99.90
19017;DHT22;9641;51.494;6.670;2023-07-02T00:27:10;17.70;99.90
19017;DHT22;9641;51.494;6.670;2023-07-02T00:29:37;17.70;99.90
19017;DHT22;9641;51.494;6.670;2023-07-02T00:32:06;17.70;99.90
19017;DHT22;9641;51.494;6.670;2023-07-02T00:34:33;17.70;99.90
19017;DHT22;9641;51.494;6.670;2023-07-02T00:37:00;17.70;99.90
19017;DHT22;9641;51.494;6.670;2023-07-02T00:39:27;17.70;99.90
19017;DHT22;9641;51.494;6.670;2023-07-02T00:41:53;17.60;99.90
19017;DHT22;9641;51.494;6.670;2023-07-02T00:44:21;17.60;99.90
19017;DHT22;9641;51.494;6.670;2023-07-02T00:46:48;17.60;99.90
19017;DHT22;9641;51.494;6.670;2023-07-02T00:49:16;17.60;99.90
19017;DHT22;9641;51.494;6.670;2023-07-02T00:51:43;17.60;99.90
19017;DHT22;9641;51.494;6.670;2023-07-02T00:54:10;17.60;99.90
19017;DHT22;9641;51.494;6.670;2023-07-02T00:56:37;17.60;99.90
19017;DHT22;9641;51.494;6.670;2023-07-02T00:59:04;17.60;99.90
19017;DHT22;9641;51.494;6.670;2023-07-02T01:01:32;17.50;99.90
19017;DHT22;9641;51.494;6.670;2023-07-02T01:04:04;17.50;99.90
19017;DHT22;9641;51.494;6.670;2023-07-02T01:06:36;17.50;99.90
19017;DHT22;9641;51.494;6.670;2023-07-02T01:09:06;17.40;99.90
19017;DHT22;9641;51.494;6.670;2023-07-02T01:11:35;17.40;99.90
19017;DHT22;9641;51.494;6.670;2023-07-02T01:14:07;17.30;99.90
19017;DHT22;9641;51.494;6.670;2023-07-02T01:16:36;17.30;99.90
19017;DHT22;9641;51.494;6.670;2023-07-02T01:19:11;17.30;99.90
19017;DHT22;9641;51.494;6.670;2023-07-02T01:21:40;17.20;99.90
19017;DHT22;9641;51.494;6.670;2023-07-02T01:24:07;17.10;99.90
19017;DHT22;9641;51.494;6.670;2023-07-02T01:26:34;17.10;99.90
19017;DHT22;9641;51.494;6.670;2023-07-02T01:29:13;17.10;99.90
19017;DHT22;9641;51.494;6.670;2023-07-02T01:31:40;17.10;99.90
19017;DHT22;9641;51.494;6.670;2023-07-02T01:34:07;17.10;99.90
19017;DHT22;9641;51.494;6.670;2023-07-02T01:36:35;17.10;99.90
19017;DHT22;9641;51.494;6.670;2023-07-02T01:39:04;17.20;99.90
19017;DHT22;9641;51.494;6.670;2023-07-02T01:41:33;17.10;99.90
19017;DHT22;9641;51.494;6.670;2023-07-02T01:44:00;17.20;99.90
19017;DHT22;9641;51.494;6.670;2023-07-02T01:46:27;17.20;99.90
19017;DHT22;9641;51.494;6.670;2023-07-02T01:48:54;17.20;99.90
19017;DHT22;9641;51.494;6.670;2023-07-02T01:51:21;17.20;99.90
19017;DHT22;9641;51.494;6.670;2023-07-02T01:53:48;17.20;99.90
19017;DHT22;9641;51.494;6.670;2023-07-02T01:56:16;17.10;99.90
19017;DHT22;9641;51.494;6.670;2023-07-02T01:58:44;17.10;99.90
19017;DHT22;9641;51.494;6.670;2023-07-02T02:01:11;17.10;99.90
19017;DHT22;9641;51.494;6.670;2023-07-02T02:03:38;17.10;99.90
19017;DHT22;9641;51.494;6.670;2023-07-02T02:06:05;17.20;99.90
19017;DHT22;9641;51.494;6.670;2023-07-02T02:08:31;17.20;99.90
19017;DHT22;9641;51.494;6.670;2023-07-02T02:10:58;17.20;99.90
19017;DHT22;9641;51.494;6.670;2023-07-02T02:13:27;17.10;99.90
19017;DHT22;9641;51.494;6.670;2023-07-02T02:15:54;17.10;99.90
19017;DHT22;9641;51.494;6.670;2023-07-02T02:18:21;17.10;99.90
19017;DHT22;9641;51.494;6.670;2023-07-02T02:20:48;17.10;99.90
19017;DHT22;9641;51.494;6.670;2023-07-02T02:23:15;17.10;99.90
19017;DHT22;9641;51.494;6.670;2023-07-02T02:25:42;17.10;99.90
19017;DHT22;9641;51.494;6.670;2023-07-02T02:28:08;17.10;99.90
19017;DHT22;9641;51.494;6.670;2023-07-02T02:30:37;17.00;99.90
19017;DHT22;9641;51.494;6.670;2023-07-02T02:33:04;17.00;99.90
19017;DHT22;9641;51.494;6.670;2023-07-02T02:35:32;17.10;99.90
19017;DHT22;9641;51.494;6.670;2023-07-02T02:38:03;17.10;99.90
19017;DHT22;9641;51.494;6.670;2023-07-02T02:40:30;17.10;99.90
19017;DHT22;9641;51.494;6.670;2023-07-02T02:42:57;17.10;99.90
19017;DHT22;9641;51.494;6.670;2023-07-02T02:45:24;17.10;99.90
19017;DHT22;9641;51.494;6.670;2023-07-02T02:47:52;17.10;99.90
19017;DHT22;9641;51.494;6.670;2023-07-02T02:50:19;17.10;99.90
19017;DHT22;9641;51.494;6.670;2023-07-02T02:52:46;17.10;99.90
19017;DHT22;9641;51.494;6.670;2023-07-02T02:55:13;17.00;99.90
19017;DHT22;9641;51.494;6.670;2023-07-02T02:57:40;17.00;99.90
19017;DHT22;9641;51.494;6.670;2023-07-02T03:00:09;17.00;99.90
19017;DHT22;9641;51.494;6.670;2023-07-02T03:02:37;17.00;99.90
19017;DHT22;9641;51.494;6.670;2023-07-02T03:05:06;16.90;99.90
19017;DHT22;9641;51.494;6.670;2023-07-02T03:07:33;17.00;99.90
19017;DHT22;9641;51.494;6.670;2023-07-02T03:10:00;17.00;99.90
19017;DHT22;9641;51.494;6.670;2023-07-02T03:12:28;17.00;99.90
19017;DHT22;9641;51.494;6.670;2023-07-02T03:14:55;17.00;99.90
19017;DHT22;9641;51.494;6.670;2023-07-02T03:17:21;17.00;99.90
19017;DHT22;9641;51.494;6.670;2023-07-02T03:19:48;17.00;99.90
19017;DHT22;9641;51.494;6.670;2023-07-02T03:22:16;17.00;99.90
19017;DHT22;9641;51.494;6.670;2023-07-02T03:24:43;16.90;99.90
19017;DHT22;9641;51.494;6.670;2023-07-02T03:27:10;16.90;99.90
19017;DHT22;9641;51.494;6.670;2023-07-02T03:29:37;16.90;99.90
19017;DHT22;9641;51.494;6.670;2023-07-02T03:32:04;16.90;99.90
19017;DHT22;9641;51.494;6.670;2023-07-02T03:34:32;16.90;99.90
19017;DHT22;9641;51.494;6.670;2023-07-02T03:36:58;16.90;99.90
19017;DHT22;9641;51.494;6.670;2023-07-02T03:39:27;17.00;99.90
19017;DHT22;9641;51.494;6.670;2023-07-02T03:41:53;16.90;99.90
19017;DHT22;9641;51.494;6.670;2023-07-02T03:44:20;16.90;99.90
19017;DHT22;9641;51.494;6.670;2023-07-02T03:46:47;17.00;99.90
19017;DHT22;9641;51.494;6.670;2023-07-02T03:49:14;17.00;99.90
19017;DHT22;9641;51.494;6.670;2023-07-02T03:51:40;16.90;99.90
19017;DHT22;9641;51.494;6.670;2023-07-02T03:54:07;16.90;99.90
19017;DHT22;9641;51.494;6.670;2023-07-02T03:56:35;16.90;99.90
19017;DHT22;9641;51.494;6.670;2023-07-02T03:59:02;16.90;99.90
19017;DHT22;9641;51.494;6.670;2023-07-02T04:01:29;16.90;99.90
19017;DHT22;9641;51.494;6.670;2023-07-02T04:03:56;16.90;99.90
19017;DHT22;9641;51.494;6.670;2023-07-02T04:06:23;16.80;99.90
19017;DHT22;9641;51.494;6.670;2023-07-02T04:08:50;16.70;99.90
19017;DHT22;9641;51.494;6.670;2023-07-02T04:11:17;16.80;99.90
19017;DHT22;9641;51.494;6.670;2023-07-02T04:13:45;16.80;99.90
19017;DHT22;9641;51.494;6.670;2023-07-02T04:16:12;16.70;99.90
19017;DHT22;9641;51.494;6.670;2023-07-02T04:18:39;16.70;99.90
19017;DHT22;9641;51.494;6.670;2023-07-02T04:21:05;16.70;99.90
19017;DHT22;9641;51.494;6.670;2023-07-02T04:23:32;16.70;99.90
19017;DHT22;9641;51.494;6.670;2023-07-02T04:25:59;16.70;99.90
19017;DHT22;9641;51.494;6.670;2023-07-02T04:28:26;16.70;99.90
19017;DHT22;9641;51.494;6.670;2023-07-02T04:30:54;16.80;99.90
19017;DHT22;9641;51.494;6.670;2023-07-02T04:33:20;16.70;99.90
19017;DHT22;9641;51.494;6.670;2023-07-02T04:35:47;16.80;99.90
19017;DHT22;9641;51.494;6.670;2023-07-02T04:38:14;16.70;99.90
19017;DHT22;9641;51.494;6.670;2023-07-02T04:40:41;16.80;99.90
19017;DHT22;9641;51.494;6.670;2023-07-02T04:43:10;16.80;99.90
19017;DHT22;9641;51.494;6.670;2023-07-02T04:45:37;16.90;99.90
19017;DHT22;9641;51.494;6.670;2023-07-02T04:48:06;16.90;99.90
19017;DHT22;9641;51.494;6.670;2023-07-02T04:50:33;16.90;99.90
19017;DHT22;9641;51.494;6.670;2023-07-02T04:53:00;16.90;99.90
19017;DHT22;9641;51.494;6.670;2023-07-02T04:55:27;16.90;99.90
19017;DHT22;9641;51.494;6.670;2023-07-02T04:57:54;16.90;99.90
19017;DHT22;9641;51.494;6.670;2023-07-02T05:00:20;16.90;99.90
19017;DHT22;9641;51.494;6.670;2023-07-02T05:02:48;16.90;99.90
19017;DHT22;9641;51.494;6.670;2023-07-02T05:05:16;16.90;99.90
19017;DHT22;9641;51.494;6.670;2023-07-02T05:07:43;17.00;99.90
19017;DHT22;9641;51.494;6.670;2023-07-02T05:10:10;17.00;99.90
19017;DHT22;9641;51.494;6.670;2023-07-02T05:12:37;17.00;99.90
19017;DHT22;9641;51.494;6.670;2023-07-02T05:15:05;17.00;99.90
19017;DHT22;9641;51.494;6.670;2023-07-02T05:17:32;17.00;99.90
19017;DHT22;9641;51.494;6.670;2023-07-02T05:20:00;17.10;99.90
19017;DHT22;9641;51.494;6.670;2023-07-02T05:22:28;17.10;99.90
19017;DHT22;9641;51.494;6.670;2023-07-02T05:24:55;17.10;99.90
19017;DHT22;9641;51.494;6.670;2023-07-02T05:27:22;17.00;99.90
19017;DHT22;9641;51.494;6.670;2023-07-02T05:29:49;17.00;99.90
19017;DHT22;9641;51.494;6.670;2023-07-02T05:32:16;16.90;99.90
19017;DHT22;9641;51.494;6.670;2023-07-02T05:34:43;16.90;99.90
19017;DHT22;9641;51.494;6.670;2023-07-02T05:37:10;17.00;99.90
19017;DHT22;9641;51.494;6.670;2023-07-02T05:39:38;17.00;99.90
19017;DHT22;9641;51.494;6.670;2023-07-02T05:42:05;17.00;99.90
19017;DHT22;9641;51.494;6.670;2023-07-02T05:44:31;17.00;99.90
19017;DHT22;9641;51.494;6.670;2023-07-02T05:46:58;17.10;99.90
19017;DHT22;9641;51.494;6.670;2023-07-02T05:49:25;17.10;99.90
19017;DHT22;9641;51.494;6.670;2023-07-02T05:51:52;17.10;99.90
19017;DHT22;9641;51.494;6.670;2023-07-02T05:54:19;17.20;99.90
19017;DHT22;9641;51.494;6.670;2023-07-02T05:56:47;17.30;99.90
19017;DHT22;9641;51.494;6.670;2023-07-02T05:59:14;17.40;99.90
19017;DHT22;9641;51.494;6.670;2023-07-02T06:01:43;17.50;99.90
19017;DHT22;9641;51.494;6.670;2023-07-02T06:04:10;17.50;99.90
19017;DHT22;9641;51.494;6.670;2023-07-02T06:06:37;17.50;99.90
19017;DHT22;9641;51.494;6.670;2023-07-02T06:09:03;17.40;37.40
19017;DHT22;9641;51.494;6.670;2023-07-02T06:11:30;17.40;77.50
19017;DHT22;9641;51.494;6.670;2023-07-02T06:13:58;17.40;62.10
19017;DHT22;9641;51.494;6.670;2023-07-02T06:16:25;17.40;93.80
19017;DHT22;9641;51.494;6.670;2023-07-02T06:18:53;17.40;74.40
19017;DHT22;9641;51.494;6.670;2023-07-02T06:21:20;17.40;92.50
19017;DHT22;9641;51.494;6.670;2023-07-02T06:23:46;17.50;13.90
19017;DHT22;9641;51.494;6.670;2023-07-02T06:26:14;17.50;31.00
19017;DHT22;9641;51.494;6.670;2023-07-02T06:28:41;17.60;1.00
19017;DHT22;9641;51.494;6.670;2023-07-02T06:31:09;17.70;1.00
19017;DHT22;9641;51.494;6.670;2023-07-02T06:33:39;17.80;1.00
19017;DHT22;9641;51.494;6.670;2023-07-02T06:36:06;17.90;1.00
19017;DHT22;9641;51.494;6.670;2023-07-02T06:38:33;17.90;1.00
19017;DHT22;9641;51.494;6.670;2023-07-02T06:41:00;18.00;1.00
19017;DHT22;9641;51.494;6.670;2023-07-02T06:43:27;18.00;1.00
19017;DHT22;9641;51.494;6.670;2023-07-02T06:45:55;18.10;1.00
19017;DHT22;9641;51.494;6.670;2023-07-02T06:48:24;18.20;1.00
19017;DHT22;9641;51.494;6.670;2023-07-02T06:50:51;18.20;99.90
19017;DHT22;9641;51.494;6.670;2023-07-02T06:53:18;18.20;1.00
19017;DHT22;9641;51.494;6.670;2023-07-02T06:55:45;18.10;99.90
19017;DHT22;9641;51.494;6.670;2023-07-02T06:58:11;18.20;1.00
19017;DHT22;9641;51.494;6.670;2023-07-02T07:00:38;18.20;55.40
19017;DHT22;9641;51.494;6.670;2023-07-02T07:03:05;18.20;1.00
19017;DHT22;9641;51.494;6.670;2023-07-02T07:05:34;18.20;1.00
19017;DHT22;9641;51.494;6.670;2023-07-02T07:08:00;18.20;1.00
19017;DHT22;9641;51.494;6.670;2023-07-02T07:10:28;18.30;1.00
19017;DHT22;9641;51.494;6.670;2023-07-02T07:12:59;18.30;99.90
19017;DHT22;9641;51.494;6.670;2023-07-02T07:15:27;18.40;1.00
19017;DHT22;9641;51.494;6.670;2023-07-02T07:17:53;18.40;1.00
19017;DHT22;9641;51.494;6.670;2023-07-02T07:20:20;18.40;99.90
19017;DHT22;9641;51.494;6.670;2023-07-02T07:22:49;18.50;1.00
19017;DHT22;9641;51.494;6.670;2023-07-02T07:25:16;18.60;99.90
19017;DHT22;9641;51.494;6.670;2023-07-02T07:27:43;18.70;1.00
19017;DHT22;9641;51.494;6.670;2023-07-02T07:30:11;18.60;99.90
19017;DHT22;9641;51.494;6.670;2023-07-02T07:32:39;18.70;17.30
19017;DHT22;9641;51.494;6.670;2023-07-02T07:35:07;18.70;99.90
19017;DHT22;9641;51.494;6.670;2023-07-02T07:37:34;18.70;99.90
19017;DHT22;9641;51.494;6.670;2023-07-02T07:40:03;18.80;1.00
19017;DHT22;9641;51.494;6.670;2023-07-02T07:42:31;18.90;1.00
19017;DHT22;9641;51.494;6.670;2023-07-02T07:45:00;19.00;1.00
19017;DHT22;9641;51.494;6.670;2023-07-02T07:47:27;18.80;1.00
19017;DHT22;9641;51.494;6.670;2023-07-02T07:49:54;18.80;1.00
19017;DHT22;9641;51.494;6.670;2023-07-02T07:52:21;18.70;1.00
19017;DHT22;9641;51.494;6.670;2023-07-02T07:54:48;18.80;1.00
19017;DHT22;9641;51.494;6.670;2023-07-02T07:57:16;18.70;1.00
19017;DHT22;9641;51.494;6.670;2023-07-02T07:59:43;18.70;1.00
19017;DHT22;9641;51.494;6.670;2023-07-02T08:02:09;18.70;1.00
19017;DHT22;9641;51.494;6.670;2023-07-02T08:04:36;18.70;1.00
19017;DHT22;9641;51.494;6.670;2023-07-02T08:07:03;18.70;1.00
19017;DHT22;9641;51.494;6.670;2023-07-02T08:09:32;18.90;1.00
19017;DHT22;9641;51.494;6.670;2023-07-02T08:11:58;18.90;1.00
19017;DHT22;9641;51.494;6.670;2023-07-02T08:14:27;18.90;1.00
19017;DHT22;9641;51.494;6.670;2023-07-02T08:16:53;19.10;1.00
19017;DHT22;9641;51.494;6.670;2023-07-02T08:19:20;19.20;1.00
19017;DHT22;9641;51.494;6.670;2023-07-02T08:21:47;19.20;1.00
19017;DHT22;9641;51.494;6.670;2023-07-02T08:24:14;19.30;1.00
19017;DHT22;9641;51.494;6.670;2023-07-02T08:26:41;19.20;1.00
19017;DHT22;9641;51.494;6.670;2023-07-02T08:29:08;19.00;1.00
19017;DHT22;9641;51.494;6.670;2023-07-02T08:31:36;19.10;1.00
19017;DHT22;9641;51.494;6.670;2023-07-02T08:34:04;19.20;1.00
19017;DHT22;9641;51.494;6.670;2023-07-02T08:36:31;19.40;1.00
19017;DHT22;9641;51.494;6.670;2023-07-02T08:38:57;19.60;1.00
19017;DHT22;9641;51.494;6.670;2023-07-02T08:41:24;19.60;99.90
19017;DHT22;9641;51.494;6.670;2023-07-02T08:43:55;19.40;99.90
19017;DHT22;9641;51.494;6.670;2023-07-02T08:46:22;19.40;99.90
19017;DHT22;9641;51.494;6.670;2023-07-02T08:48:51;19.40;99.90
19017;DHT22;9641;51.494;6.670;2023-07-02T08:51:18;19.40;99.90
19017;DHT22;9641;51.494;6.670;2023-07-02T08:53:45;19.40;99.90
19017;DHT22;9641;51.494;6.670;2023-07-02T08:56:12;19.40;99.90
19017;DHT22;9641;51.494;6.670;2023-07-02T08:58:39;19.30;99.90
19017;DHT22;9641;51.494;6.670;2023-07-02T09:01:07;19.40;99.90
19017;DHT22;9641;51.494;6.670;2023-07-02T09:03:34;19.40;99.90
19017;DHT22;9641;51.494;6.670;2023-07-02T09:06:04;19.60;99.90
19017;DHT22;9641;51.494;6.670;2023-07-02T09:08:31;19.80;99.90
19017;DHT22;9641;51.494;6.670;2023-07-02T09:11:06;19.70;99.90
19017;DHT22;9641;51.494;6.670;2023-07-02T09:13:42;19.70;99.90
19017;DHT22;9641;51.494;6.670;2023-07-02T09:16:24;19.70;99.90
19017;DHT22;9641;51.494;6.670;2023-07-02T09:18:58;19.80;99.90
19017;DHT22;9641;51.494;6.670;2023-07-02T09:21:27;19.80;99.90
19017;DHT22;9641;51.494;6.670;2023-07-02T09:23:54;19.70;99.90
19017;DHT22;9641;51.494;6.670;2023-07-02T09:26:22;19.60;99.90
19017;DHT22;9641;51.494;6.670;2023-07-02T09:28:49;19.40;99.90
19017;DHT22;9641;51.494;6.670;2023-07-02T09:31:16;19.60;99.90
19017;DHT22;9641;51.494;6.670;2023-07-02T09:33:43;19.60;99.90
19017;DHT22;9641;51.494;6.670;2023-07-02T09:36:11;19.60;99.90
19017;DHT22;9641;51.494;6.670;2023-07-02T09:38:40;19.50;99.90
19017;DHT22;9641;51.494;6.670;2023-07-02T09:41:07;19.50;99.90
19017;DHT22;9641;51.494;6.670;2023-07-02T09:43:35;19.60;99.90
19017;DHT22;9641;51.494;6.670;2023-07-02T09:46:02;19.60;99.90
19017;DHT22;9641;51.494;6.670;2023-07-02T09:48:33;19.60;99.90
19017;DHT22;9641;51.494;6.670;2023-07-02T09:51:01;19.70;99.90
19017;DHT22;9641;51.494;6.670;2023-07-02T09:53:30;19.90;99.90
19017;DHT22;9641;51.494;6.670;2023-07-02T09:55:58;20.00;99.90
19017;DHT22;9641;51.494;6.670;2023-07-02T09:58:25;20.00;99.90
19017;DHT22;9641;51.494;6.670;2023-07-02T10:00:52;20.20;99.90
19017;DHT22;9641;51.494;6.670;2023-07-02T10:03:28;20.50;99.90
19017;DHT22;9641;51.494;6.670;2023-07-02T10:06:03;20.60;99.90
19017;DHT22;9641;51.494;6.670;2023-07-02T10:08:30;20.60;99.90
19017;DHT22;9641;51.494;6.670;2023-07-02T10:11:10;20.60;99.90
19017;DHT22;9641;51.494;6.670;2023-07-02T10:13:39;20.60;99.90
19017;DHT22;9641;51.494;6.670;2023-07-02T10:16:07;20.60;99.90
19017;DHT22;9641;51.494;6.670;2023-07-02T10:18:34;20.60;99.90
19017;DHT22;9641;51.494;6.670;2023-07-02T10:21:12;20.70;99.90
19017;DHT22;9641;51.494;6.670;2023-07-02T10:23:39;20.80;99.90
19017;DHT22;9641;51.494;6.670;2023-07-02T10:26:14;21.00;99.90
19017;DHT22;9641;51.494;6.670;2023-07-02T10:28:42;21.00;99.90
19017;DHT22;9641;51.494;6.670;2023-07-02T10:34:13;20.60;99.90
19017;DHT22;9641;51.494;6.670;2023-07-02T10:36:40;20.50;99.90
19017;DHT22;9641;51.494;6.670;2023-07-02T10:39:07;20.40;99.90
19017;DHT22;9641;51.494;6.670;2023-07-02T10:41:35;20.50;99.90
19017;DHT22;9641;51.494;6.670;2023-07-02T10:44:06;20.40;99.90
19017;DHT22;9641;51.494;6.670;2023-07-02T10:46:46;20.50;99.90
19017;DHT22;9641;51.494;6.670;2023-07-02T10:49:13;20.60;99.90
19017;DHT22;9641;51.494;6.670;2023-07-02T10:51:41;20.70;99.90
19017;DHT22;9641;51.494;6.670;2023-07-02T10:54:09;20.80;99.90
19017;DHT22;9641;51.494;6.670;2023-07-02T10:56:38;21.00;99.90
19017;DHT22;9641;51.494;6.670;2023-07-02T10:59:07;21.10;99.90
19017;DHT22;9641;51.494;6.670;2023-07-02T11:01:34;21.00;99.90
19017;DHT22;9641;51.494;6.670;2023-07-02T11:04:03;21.00;99.90
19017;DHT22;9641;51.494;6.670;2023-07-02T11:06:33;21.30;99.90
19017;DHT22;9641;51.494;6.670;2023-07-02T11:09:15;21.20;99.90
19017;DHT22;9641;51.494;6.670;2023-07-02T11:11:51;21.50;99.90
19017;DHT22;9641;51.494;6.670;2023-07-02T11:14:29;21.80;99.90
19017;DHT22;9641;51.494;6.670;2023-07-02T11:16:57;22.00;99.90
19017;DHT22;9641;51.494;6.670;2023-07-02T11:19:25;22.20;99.90
19017;DHT22;9641;51.494;6.670;2023-07-02T11:21:54;22.00;99.90
19017;DHT22;9641;51.494;6.670;2023-07-02T11:24:36;21.80;99.90
19017;DHT22;9641;51.494;6.670;2023-07-02T11:27:05;21.50;99.90
19017;DHT22;9641;51.494;6.670;2023-07-02T11:29:33;21.20;99.90
19017;DHT22;9641;51.494;6.670;2023-07-02T11:32:06;21.20;99.90
19017;DHT22;9641;51.494;6.670;2023-07-02T11:34:35;21.40;99.90
19017;DHT22;9641;51.494;6.670;2023-07-02T11:37:03;21.40;99.90
19017;DHT22;9641;51.494;6.670;2023-07-02T11:39:30;21.60;99.90
19017;DHT22;9641;51.494;6.670;2023-07-02T11:41:57;21.60;99.90
19017;DHT22;9641;51.494;6.670;2023-07-02T11:44:26;21.50;99.90
19017;DHT22;9641;51.494;6.670;2023-07-02T11:46:54;21.50;99.90
19017;DHT22;9641;51.494;6.670;2023-07-02T11:49:24;21.40;99.90
19017;DHT22;9641;51.494;6.670;2023-07-02T11:51:59;21.70;99.90
19017;DHT22;9641;51.494;6.670;2023-07-02T11:54:48;21.90;99.90
19017;DHT22;9641;51.494;6.670;2023-07-02T11:57:15;22.30;99.90
19017;DHT22;9641;51.494;6.670;2023-07-02T11:59:43;22.70;99.90
19017;DHT22;9641;51.494;6.670;2023-07-02T12:02:12;22.50;99.90
19017;DHT22;9641;51.494;6.670;2023-07-02T12:04:51;22.30;99.90
19017;DHT22;9641;51.494;6.670;2023-07-02T12:07:18;22.30;99.90
19017;DHT22;9641;51.494;6.670;2023-07-02T12:09:44;22.10;99.90
19017;DHT22;9641;51.494;6.670;2023-07-02T12:12:13;21.90;99.90
19017;DHT22;9641;51.494;6.670;2023-07-02T12:14:40;21.80;99.90
19017;DHT22;9641;51.494;6.670;2023-07-02T12:17:10;22.00;99.90
19017;DHT22;9641;51.494;6.670;2023-07-02T12:19:38;22.20;99.90
19017;DHT22;9641;51.494;6.670;2023-07-02T12:22:05;22.20;99.90
19017;DHT22;9641;51.494;6.670;2023-07-02T12:24:32;22.40;99.90
19017;DHT22;9641;51.494;6.670;2023-07-02T12:26:59;22.80;99.90
19017;DHT22;9641;51.494;6.670;2023-07-02T12:29:26;23.00;99.90
19017;DHT22;9641;51.494;6.670;2023-07-02T12:31:54;23.30;99.90
19017;DHT22;9641;51.494;6.670;2023-07-02T12:34:22;23.50;99.90
19017;DHT22;9641;51.494;6.670;2023-07-02T12:36:49;23.30;99.90
19017;DHT22;9641;51.494;6.670;2023-07-02T12:39:16;23.20;99.90
19017;DHT22;9641;51.494;6.670;2023-07-02T12:41:43;23.40;99.90
19017;DHT22;9641;51.494;6.670;2023-07-02T12:44:10;23.70;99.90
19017;DHT22;9641;51.494;6.670;2023-07-02T12:46:36;23.80;99.90
19017;DHT22;9641;51.494;6.670;2023-07-02T12:49:03;23.80;99.90
19017;DHT22;9641;51.494;6.670;2023-07-02T12:51:32;23.40;97.30
19017;DHT22;9641;51.494;6.670;2023-07-02T12:53:59;23.30;99.90
19017;DHT22;9641;51.494;6.670;2023-07-02T12:56:26;23.60;95.00
19017;DHT22;9641;51.494;6.670;2023-07-02T12:58:53;23.90;99.90
19017;DHT22;9641;51.494;6.670;2023-07-02T13:01:20;24.20;99.90
19017;DHT22;9641;51.494;6.670;2023-07-02T13:03:47;23.90;99.90
19017;DHT22;9641;51.494;6.670;2023-07-02T13:06:14;23.80;93.90
19017;DHT22;9641;51.494;6.670;2023-07-02T13:08:42;24.00;99.90
19017;DHT22;9641;51.494;6.670;2023-07-02T13:11:09;24.80;99.90
19017;DHT22;9641;51.494;6.670;2023-07-02T13:13:35;25.00;99.90
19017;DHT22;9641;51.494;6.670;2023-07-02T13:16:03;24.80;99.90
19017;DHT22;9641;51.494;6.670;2023-07-02T13:18:30;24.60;97.40
19017;DHT22;9641;51.494;6.670;2023-07-02T13:20:58;24.30;88.60
19017;DHT22;9641;51.494;6.670;2023-07-02T13:23:25;23.80;94.20
19017;DHT22;9641;51.494;6.670;2023-07-02T13:25:54;24.00;98.80
19017;DHT22;9641;51.494;6.670;2023-07-02T13:28:23;24.50;98.00
19017;DHT22;9641;51.494;6.670;2023-07-02T13:30:51;25.00;99.90
19017;DHT22;9641;51.494;6.670;2023-07-02T13:33:18;25.00;99.10
19017;DHT22;9641;51.494;6.670;2023-07-02T13:35:45;24.90;98.30
19017;DHT22;9641;51.494;6.670;2023-07-02T13:38:11;25.10;99.90
19017;DHT22;9641;51.494;6.670;2023-07-02T13:41:17;25.50;92.70
19017;DHT22;9641;51.494;6.670;2023-07-02T13:43:44;25.30;84.30
19017;DHT22;9641;51.494;6.670;2023-07-02T13:46:10;24.70;60.40
19017;DHT22;9641;51.494;6.670;2023-07-02T13:48:37;24.50;75.40
19017;DHT22;9641;51.494;6.670;2023-07-02T13:51:04;24.50;77.30
19017;DHT22;9641;51.494;6.670;2023-07-02T13:53:33;24.20;55.50
19017;DHT22;9641;51.494;6.670;2023-07-02T13:56:00;24.60;71.00
19017;DHT22;9641;51.494;6.670;2023-07-02T14:01:11;25.00;82.80
19017;DHT22;9641;51.494;6.670;2023-07-02T14:03:37;24.80;63.10
19017;DHT22;9641;51.494;6.670;2023-07-02T14:06:04;24.20;54.50
19017;DHT22;9641;51.494;6.670;2023-07-02T14:08:31;23.60;52.40
19017;DHT22;9641;51.494;6.670;2023-07-02T14:10:58;23.40;54.00
19017;DHT22;9641;51.494;6.670;2023-07-02T14:13:25;23.40;50.90
19017;DHT22;9641;51.494;6.670;2023-07-02T14:15:51;23.90;68.50
19017;DHT22;9641;51.494;6.670;2023-07-02T14:18:20;24.90;96.00
19017;DHT22;9641;51.494;6.670;2023-07-02T14:20:46;25.60;97.30
19017;DHT22;9641;51.494;6.670;2023-07-02T14:23:13;26.30;96.80
19017;DHT22;9641;51.494;6.670;2023-07-02T14:25:40;26.70;89.90
19017;DHT22;9641;51.494;6.670;2023-07-02T14:28:07;27.10;76.80
19017;DHT22;9641;51.494;6.670;2023-07-02T14:30:34;27.10;72.50
19017;DHT22;9641;51.494;6.670;2023-07-02T14:33:01;26.50;39.90
19017;DHT22;9641;51.494;6.670;2023-07-02T14:35:30;26.20;48.30
19017;DHT22;9641;51.494;6.670;2023-07-02T14:37:57;26.00;34.10
19017;DHT22;9641;51.494;6.670;2023-07-02T14:40:24;25.50;26.70
19017;DHT22;9641;51.494;6.670;2023-07-02T14:42:50;25.70;26.60
19017;DHT22;9641;51.494;6.670;2023-07-02T14:45:17;25.50;15.30
19017;DHT22;9641;51.494;6.670;2023-07-02T14:47:44;24.60;6.70
19017;DHT22;9641;51.494;6.670;2023-07-02T14:50:11;24.00;1.20
19017;DHT22;9641;51.494;6.670;2023-07-02T14:52:39;23.90;8.20
19017;DHT22;9641;51.494;6.670;2023-07-02T14:55:07;24.00;12.20
19017;DHT22;9641;51.494;6.670;2023-07-02T14:57:34;24.00;11.20
19017;DHT22;9641;51.494;6.670;2023-07-02T15:00:00;24.30;13.60
19017;DHT22;9641;51.494;6.670;2023-07-02T15:02:27;25.00;34.70
19017;DHT22;9641;51.494;6.670;2023-07-02T15:04:54;26.30;45.40
19017;DHT22;9641;51.494;6.670;2023-07-02T15:07:21;27.60;60.90
19017;DHT22;9641;51.494;6.670;2023-07-02T15:09:49;28.50;46.20
19017;DHT22;9641;51.494;6.670;2023-07-02T15:12:16;27.70;10.10
19017;DHT22;9641;51.494;6.670;2023-07-02T15:14:43;26.40;1.00
19017;DHT22;9641;51.494;6.670;2023-07-02T15:17:09;25.30;1.00
19017;DHT22;9641;51.494;6.670;2023-07-02T15:19:36;24.50;1.00
19017;DHT22;9641;51.494;6.670;2023-07-02T15:22:03;24.30;1.00
19017;DHT22;9641;51.494;6.670;2023-07-02T15:24:31;24.70;1.00
19017;DHT22;9641;51.494;6.670;2023-07-02T15:26:59;24.50;1.00
19017;DHT22;9641;51.494;6.670;2023-07-02T15:29:26;24.40;1.00
19017;DHT22;9641;51.494;6.670;2023-07-02T15:31:52;24.50;1.00
19017;DHT22;9641;51.494;6.670;2023-07-02T15:34:19;25.00;1.00
19017;DHT22;9641;51.494;6.670;2023-07-02T15:36:46;26.30;11.60
19017;DHT22;9641;51.494;6.670;2023-07-02T15:39:13;27.70;19.10
19017;DHT22;9641;51.494;6.670;2023-07-02T15:41:47;28.40;31.00
19017;DHT22;9641;51.494;6.670;2023-07-02T15:44:16;28.90;13.20
19017;DHT22;9641;51.494;6.670;2023-07-02T15:46:42;29.60;3.70
19017;DHT22;9641;51.494;6.670;2023-07-02T15:49:11;29.60;1.00
19017;DHT22;9641;51.494;6.670;2023-07-02T15:51:39;28.70;1.00
19017;DHT22;9641;51.494;6.670;2023-07-02T15:54:09;27.40;1.00
19017;DHT22;9641;51.494;6.670;2023-07-02T15:56:36;26.40;1.00